Skip Navigation

Christman Field Latest Observations

Switch to metric unitsOther observation timesWeekly graphs

Date Time
MST
Temp
°F
RH
%
DewPt
°F
Wind
mph
Dir
°
Gust
mph
Dir
°
Press
in Hg
Solar
W/m^2
Prec
in
2021-09-19 23:00 61.9 43.5 39.5 22.0 316 33.6 291 24.728 0.0 0.00
2021-09-19 22:55 61.4 45.0 39.9 19.9 329 27.4 332 24.730 0.0 0.00
2021-09-19 22:50 60.8 46.9 40.4 15.9 324 27.3 325 24.730 0.0 0.00
2021-09-19 22:45 60.5 48.6 41.1 15.1 356 23.3 341 24.730 0.0 0.00
2021-09-19 22:40 60.7 49.7 41.9 16.6 350 24.2 336 24.724 0.0 0.00
2021-09-19 22:35 61.1 48.9 41.8 19.1 3 24.4 326 24.724 0.0 0.00
2021-09-19 22:30 61.5 47.3 41.3 20.8 322 26.4 325 24.721 0.0 0.00
2021-09-19 22:25 62.2 46.0 41.2 21.5 329 30.2 315 24.724 0.0 0.00
2021-09-19 22:20 62.5 44.9 40.8 21.3 334 29.0 317 24.720 0.0 0.00
2021-09-19 22:15 62.9 44.0 40.6 23.0 315 30.3 307 24.715 0.0 0.00
2021-09-19 22:10 63.0 44.0 40.8 22.1 314 29.2 314 24.713 0.0 0.00
2021-09-19 22:05 63.6 43.6 41.1 20.0 321 24.6 321 24.711 0.0 0.00
2021-09-19 22:00 64.2 42.8 41.1 17.9 317 25.1 318 24.714 0.0 0.00
2021-09-19 21:55 64.6 42.0 41.0 19.0 315 25.7 312 24.717 0.0 0.00
2021-09-19 21:50 64.8 42.2 41.3 18.7 308 29.3 313 24.719 0.0 0.00
2021-09-19 21:45 65.0 42.1 41.5 23.7 308 32.1 314 24.718 0.0 0.00
2021-09-19 21:40 65.4 41.7 41.5 24.4 300 33.1 318 24.723 0.0 0.00
2021-09-19 21:35 66.0 42.4 42.5 21.9 310 31.9 331 24.721 0.0 0.00
2021-09-19 21:30 66.9 41.5 42.8 23.9 318 31.3 317 24.719 0.0 0.00
2021-09-19 21:25 67.9 39.5 42.4 22.5 324 29.2 339 24.716 0.0 0.00
2021-09-19 21:20 68.5 37.1 41.3 19.5 347 27.8 337 24.707 0.0 0.00
2021-09-19 21:15 68.3 34.8 39.5 10.8 3 17.9 350 24.700 0.0 0.00
2021-09-19 21:10 69.7 34.1 40.1 13.1 348 18.3 342 24.696 0.0 0.00
2021-09-19 21:05 73.4 30.5 40.5 10.0 337 15.6 7 24.692 0.0 0.00
2021-09-19 21:00 75.5 26.6 38.9 4.7 12 9.4 207 24.687 0.0 0.00
2021-09-19 20:55 75.7 26.3 38.7 9.7 174 14.2 185 24.683 0.0 0.00
2021-09-19 20:50 75.7 26.0 38.4 8.1 155 12.0 172 24.679 0.0 0.00
2021-09-19 20:45 75.7 26.1 38.6 8.6 191 13.4 183 24.679 0.0 0.00
2021-09-19 20:40 76.0 25.8 38.5 7.9 186 12.3 182 24.680 0.0 0.00
2021-09-19 20:35 76.1 25.5 38.3 10.3 191 15.7 208 24.678 0.0 0.00